Time;durP1;ratioP1;P1;durP2;ratioP2;P2;SDS_P1;SDS_P2;PMS_P1;PMS_P2;Temp;Humidity;BMP_temperature;BMP_pressure;BME280_temperature;BME280_humidity;BME280_pressure;Samples;Min_cycle;Max_cycle;Signal;HPM_P1;HPM_P2
2022/06/26 00:00:49;;;;;;;12.97;8.10;;;;;;;;;;5036318;28;20179;-68
2022/06/26 00:03:15;;;;;;;8.93;8.03;;;;;;;;;;5036311;28;20230;-67
2022/06/26 00:05:41;;;;;;;8.20;7.37;;;;;;;;;;5036408;28;20183;-68
2022/06/26 00:08:08;;;;;;;7.90;6.57;;;;;;;;;;5036462;28;20195;-69
2022/06/26 00:10:34;;;;;;;7.40;6.00;;;;;;;;;;5036211;28;20199;-68
2022/06/26 00:13:00;;;;;;;7.00;6.40;;;;;;;;;;5018283;28;20210;-69
2022/06/26 00:15:26;;;;;;;7.53;6.77;;;;;;;;;;5036391;28;20663;-69
2022/06/26 00:17:51;;;;;;;7.83;7.03;;;;;;;;;;5035398;28;20179;-68
2022/06/26 00:20:21;;;;;;;8.23;7.43;;;;;;;;;;5018277;28;20178;-69
2022/06/26 00:22:47;;;;;;;8.73;7.23;;;;;;;;;;5036074;28;20286;-68
2022/06/26 00:25:13;;;;;;;7.70;6.90;;;;;;;;;;5035860;28;20612;-68
2022/06/26 00:27:39;;;;;;;8.37;7.57;;;;;;;;;;5035953;28;20210;-68
2022/06/26 00:30:06;;;;;;;10.93;9.00;;;;;;;;;;5017080;28;20752;-68
2022/06/26 00:32:32;;;;;;;8.00;7.30;;;;;;;;;;5035528;28;20222;-68
2022/06/26 00:34:58;;;;;;;9.03;7.57;;;;;;;;;;5036246;28;20179;-68
2022/06/26 00:37:23;;;;;;;8.90;8.03;;;;;;;;;;5035634;28;20182;-69
2022/06/26 00:39:49;;;;;;;10.67;8.20;;;;;;;;;;5035747;28;20201;-68
2022/06/26 00:42:16;;;;;;;9.33;8.33;;;;;;;;;;5017765;28;20217;-69
2022/06/26 00:44:42;;;;;;;10.97;8.47;;;;;;;;;;5017771;28;20236;-68
2022/06/26 00:47:08;;;;;;;9.33;8.43;;;;;;;;;;5035461;28;20179;-69
2022/06/26 00:49:34;;;;;;;8.60;7.87;;;;;;;;;;5035313;28;20186;-67
2022/06/26 00:52:01;;;;;;;11.00;9.20;;;;;;;;;;5017414;28;20580;-67
2022/06/26 00:54:29;;;;;;;9.53;8.53;;;;;;;;;;5035648;28;20254;-68
2022/06/26 00:56:58;;;;;;;11.57;9.10;;;;;;;;;;5035251;28;20179;-68
2022/06/26 00:59:28;;;;;;;11.03;9.43;;;;;;;;;;5017534;28;20270;-68
2022/06/26 01:01:54;;;;;;;11.33;9.73;;;;;;;;;;5035056;28;20183;-68
2022/06/26 01:04:20;;;;;;;10.80;9.70;;;;;;;;;;5035126;28;20306;-67
2022/06/26 01:06:46;;;;;;;10.50;9.50;;;;;;;;;;5035309;28;20186;-68
2022/06/26 01:09:12;;;;;;;11.80;9.70;;;;;;;;;;5035819;28;20176;-68
2022/06/26 01:11:39;;;;;;;10.90;9.77;;;;;;;;;;5034984;28;20573;-67
2022/06/26 01:14:05;;;;;;;11.60;9.53;;;;;;;;;;5017092;28;20222;-67
2022/06/26 01:16:31;;;;;;;13.83;9.90;;;;;;;;;;5034854;28;20592;-68
2022/06/26 01:18:58;;;;;;;12.50;10.80;;;;;;;;;;5035236;28;20179;-67
2022/06/26 01:21:25;;;;;;;12.30;10.97;;;;;;;;;;5034913;28;20647;-67
2022/06/26 01:23:52;;;;;;;12.27;11.00;;;;;;;;;;5017060;28;20313;-67
2022/06/26 01:26:18;;;;;;;16.23;11.57;;;;;;;;;;5035103;28;20546;-67
2022/06/26 01:28:44;;;;;;;15.83;11.50;;;;;;;;;;5017111;28;20191;-66
2022/06/26 01:31:10;;;;;;;13.93;11.63;;;;;;;;;;5016810;28;20801;-67
2022/06/26 01:33:37;;;;;;;16.10;12.60;;;;;;;;;;5034644;28;20202;-69
2022/06/26 01:36:03;;;;;;;14.20;12.57;;;;;;;;;;5034632;28;20180;-68
2022/06/26 01:38:29;;;;;;;14.20;12.43;;;;;;;;;;5034709;28;20707;-68
2022/06/26 01:40:56;;;;;;;15.90;14.20;;;;;;;;;;5034911;28;20217;-67
2022/06/26 01:43:23;;;;;;;16.00;13.90;;;;;;;;;;5034577;28;20225;-68
2022/06/26 01:45:53;;;;;;;22.90;15.67;;;;;;;;;;5016805;28;20182;-68
2022/06/26 01:48:20;;;;;;;17.63;14.47;;;;;;;;;;5034556;28;20598;-68
2022/06/26 01:50:47;;;;;;;15.63;13.60;;;;;;;;;;5034417;28;20199;-68
2022/06/26 01:53:13;;;;;;;15.63;13.97;;;;;;;;;;5034724;28;20234;-68
2022/06/26 01:55:39;;;;;;;18.03;15.17;;;;;;;;;;5035167;28;20203;-68
2022/06/26 01:58:06;;;;;;;23.63;15.27;;;;;;;;;;5016892;28;20207;-68
2022/06/26 02:00:32;;;;;;;17.03;15.10;;;;;;;;;;5016891;28;20189;-67
2022/06/26 02:02:58;;;;;;;18.83;15.27;;;;;;;;;;5016776;28;20294;-67
2022/06/26 02:05:25;;;;;;;18.23;15.40;;;;;;;;;;5035022;28;20179;-67
2022/06/26 02:07:51;;;;;;;17.80;15.90;;;;;;;;;;5034692;28;20190;-67
2022/06/26 02:15:48;;;;;;;19.73;15.17;;;;;;;;;;5034399;28;20597;-67
2022/06/26 02:18:14;;;;;;;17.83;15.60;;;;;;;;;;5016848;28;20214;-67
2022/06/26 02:20:40;;;;;;;16.70;14.90;;;;;;;;;;5034249;28;20175;-67
2022/06/26 02:23:06;;;;;;;19.37;15.40;;;;;;;;;;5034389;28;20218;-67
2022/06/26 02:25:32;;;;;;;18.33;15.73;;;;;;;;;;5034045;28;20230;-68
2022/06/26 02:27:58;;;;;;;17.23;14.57;;;;;;;;;;5034376;28;20179;-67
2022/06/26 02:30:24;;;;;;;23.73;16.63;;;;;;;;;;5034049;28;20175;-67
2022/06/26 02:32:50;;;;;;;20.77;16.93;;;;;;;;;;5016673;28;20269;-67
2022/06/26 02:35:16;;;;;;;17.73;15.83;;;;;;;;;;5016880;28;20639;-67
2022/06/26 02:37:42;;;;;;;20.23;16.17;;;;;;;;;;5016577;28;20269;-67
2022/06/26 02:40:08;;;;;;;21.30;16.87;;;;;;;;;;5033627;28;20179;-67
2022/06/26 02:42:34;;;;;;;20.97;17.27;;;;;;;;;;5033556;28;20238;-68
2022/06/26 02:45:00;;;;;;;20.20;16.50;;;;;;;;;;5033445;28;20210;-68
2022/06/26 02:47:26;;;;;;;19.73;17.60;;;;;;;;;;5016084;28;20183;-68
2022/06/26 02:49:52;;;;;;;20.63;17.00;;;;;;;;;;5033765;28;20653;-68
2022/06/26 02:52:18;;;;;;;19.77;17.27;;;;;;;;;;5033317;28;20253;-68
2022/06/26 02:54:44;;;;;;;19.43;15.23;;;;;;;;;;5015400;28;20627;-69
2022/06/26 02:57:10;;;;;;;17.47;15.67;;;;;;;;;;5015610;28;20611;-68
2022/06/26 02:59:36;;;;;;;19.07;16.47;;;;;;;;;;5015730;28;20758;-68
2022/06/26 03:02:02;;;;;;;18.07;15.53;;;;;;;;;;5015575;28;20183;-68
2022/06/26 03:04:28;;;;;;;24.37;17.00;;;;;;;;;;5033218;28;20179;-68
2022/06/26 03:06:54;;;;;;;20.37;16.40;;;;;;;;;;5033153;28;20182;-68
2022/06/26 03:09:19;;;;;;;24.60;17.63;;;;;;;;;;5015768;28;20191;-69
2022/06/26 03:11:45;;;;;;;21.97;16.77;;;;;;;;;;5033195;28;20582;-69
2022/06/26 03:14:11;;;;;;;22.03;16.50;;;;;;;;;;5015326;28;20195;-68
2022/06/26 03:16:37;;;;;;;18.97;16.37;;;;;;;;;;5033252;28;20171;-68
2022/06/26 03:19:04;;;;;;;21.03;16.70;;;;;;;;;;5015476;28;20186;-68
2022/06/26 03:21:30;;;;;;;19.73;16.03;;;;;;;;;;5015512;28;20189;-68
2022/06/26 03:24:02;;;;;;;22.53;16.87;;;;;;;;;;5032968;28;20210;-68
2022/06/26 03:26:28;;;;;;;23.40;17.20;;;;;;;;;;5032970;28;20585;-68
2022/06/26 03:28:54;;;;;;;21.00;16.67;;;;;;;;;;5033719;28;20183;-68
2022/06/26 03:31:20;;;;;;;22.23;18.10;;;;;;;;;;5033561;28;20314;-68
2022/06/26 03:33:46;;;;;;;23.93;18.20;;;;;;;;;;5033269;28;20207;-68
2022/06/26 03:36:12;;;;;;;21.53;17.23;;;;;;;;;;5033296;28;20176;-68
2022/06/26 03:38:38;;;;;;;25.50;17.87;;;;;;;;;;5033558;28;20677;-67
2022/06/26 03:41:04;;;;;;;22.47;17.47;;;;;;;;;;5015198;28;20278;-68
2022/06/26 03:43:30;;;;;;;22.73;17.53;;;;;;;;;;5032995;28;20203;-68
2022/06/26 03:45:56;;;;;;;23.33;17.03;;;;;;;;;;5032850;28;20332;-68
2022/06/26 03:48:22;;;;;;;27.77;17.97;;;;;;;;;;5033423;28;20186;-68
2022/06/26 03:50:48;;;;;;;24.17;17.93;;;;;;;;;;5032721;28;20593;-68
2022/06/26 03:53:14;;;;;;;29.07;18.17;;;;;;;;;;5034982;28;20281;-68
2022/06/26 03:55:40;;;;;;;23.27;17.67;;;;;;;;;;5018787;28;20183;-67
2022/06/26 03:58:06;;;;;;;23.77;16.67;;;;;;;;;;5036537;28;20208;-69
2022/06/26 04:00:32;;;;;;;22.33;17.53;;;;;;;;;;5018850;28;20207;-67
2022/06/26 04:03:02;;;;;;;20.90;16.40;;;;;;;;;;5036572;28;20199;-67
2022/06/26 04:05:28;;;;;;;26.10;16.83;;;;;;;;;;5036308;28;20548;-68
2022/06/26 04:07:54;;;;;;;24.23;16.00;;;;;;;;;;5018671;28;20185;-68
2022/06/26 04:10:20;;;;;;;18.97;15.37;;;;;;;;;;5018616;28;20175;-68
2022/06/26 04:12:46;;;;;;;16.33;14.23;;;;;;;;;;5036347;28;20195;-68
2022/06/26 04:15:11;;;;;;;18.07;14.93;;;;;;;;;;5036422;28;20179;-67
2022/06/26 04:17:37;;;;;;;17.63;15.13;;;;;;;;;;5036336;28;20199;-68
2022/06/26 04:20:04;;;;;;;17.63;14.43;;;;;;;;;;5036141;28;20177;-68
2022/06/26 04:22:30;;;;;;;20.77;13.90;;;;;;;;;;5018533;28;20268;-67
2022/06/26 04:24:56;;;;;;;15.70;13.60;;;;;;;;;;5037076;28;20246;-67
2022/06/26 04:27:21;;;;;;;15.00;13.03;;;;;;;;;;5036573;28;20171;-68
2022/06/26 04:29:47;;;;;;;14.50;12.30;;;;;;;;;;5036643;28;20253;-67
2022/06/26 04:32:13;;;;;;;13.00;11.80;;;;;;;;;;5036516;28;20234;-67
2022/06/26 04:34:39;;;;;;;12.07;10.80;;;;;;;;;;5036685;28;20628;-69
2022/06/26 04:37:05;;;;;;;13.20;10.83;;;;;;;;;;5035680;28;20183;-67
2022/06/26 04:39:31;;;;;;;13.23;11.73;;;;;;;;;;5017922;28;20219;-68
2022/06/26 04:41:57;;;;;;;12.97;10.57;;;;;;;;;;5035653;28;20206;-68
2022/06/26 04:44:23;;;;;;;15.30;11.03;;;;;;;;;;5035542;28;20693;-67
2022/06/26 04:46:49;;;;;;;13.80;10.77;;;;;;;;;;5035777;28;20214;-67
2022/06/26 04:49:16;;;;;;;14.00;10.33;;;;;;;;;;5035851;28;20183;-67
2022/06/26 04:51:42;;;;;;;11.00;9.90;;;;;;;;;;5018443;28;20217;-67
2022/06/26 04:54:08;;;;;;;10.40;9.37;;;;;;;;;;5017686;28;20230;-68
2022/06/26 04:56:35;;;;;;;10.33;9.27;;;;;;;;;;5035433;28;20266;-68
2022/06/26 04:59:01;;;;;;;12.33;9.70;;;;;;;;;;5035512;28;20175;-67
2022/06/26 05:01:28;;;;;;;12.50;9.67;;;;;;;;;;5017539;28;20183;-68
2022/06/26 05:03:54;;;;;;;9.57;8.13;;;;;;;;;;5034973;28;20195;-67
2022/06/26 05:06:20;;;;;;;9.93;8.53;;;;;;;;;;5017850;28;20650;-67
2022/06/26 05:08:47;;;;;;;9.03;7.93;;;;;;;;;;5017367;28;20183;-67
2022/06/26 05:11:13;;;;;;;8.47;7.70;;;;;;;;;;5017166;28;20203;-67
2022/06/26 05:13:39;;;;;;;10.47;7.83;;;;;;;;;;5035226;28;20278;-67
2022/06/26 05:16:06;;;;;;;12.67;7.20;;;;;;;;;;5017246;28;20214;-68
2022/06/26 05:18:32;;;;;;;8.70;6.30;;;;;;;;;;5017359;28;20224;-67
2022/06/26 05:20:57;;;;;;;9.40;6.60;;;;;;;;;;5035029;28;20258;-68
2022/06/26 05:23:24;;;;;;;5.80;5.30;;;;;;;;;;5017092;28;20625;-67
2022/06/26 05:25:50;;;;;;;7.33;5.50;;;;;;;;;;5017070;28;20270;-68
2022/06/26 05:28:16;;;;;;;7.97;5.23;;;;;;;;;;5034809;28;20218;-68
2022/06/26 05:30:43;;;;;;;5.27;4.77;;;;;;;;;;5034709;28;20199;-67
2022/06/26 05:33:08;;;;;;;6.17;4.23;;;;;;;;;;5034894;28;20191;-67
2022/06/26 05:35:35;;;;;;;6.20;4.83;;;;;;;;;;5034604;28;20189;-67
2022/06/26 05:38:01;;;;;;;6.07;5.00;;;;;;;;;;5035018;28;20179;-68
2022/06/26 05:40:27;;;;;;;6.27;5.33;;;;;;;;;;5035942;28;20179;-69
2022/06/26 05:42:56;;;;;;;7.43;5.23;;;;;;;;;;5034531;28;20202;-68
2022/06/26 05:45:22;;;;;;;5.30;4.80;;;;;;;;;;5016755;28;20183;-68
2022/06/26 05:47:48;;;;;;;4.80;4.40;;;;;;;;;;5016851;28;20179;-68
2022/06/26 05:50:15;;;;;;;5.97;4.57;;;;;;;;;;5034499;28;20536;-69
2022/06/26 05:52:40;;;;;;;5.67;4.67;;;;;;;;;;5034805;28;20595;-68
2022/06/26 05:55:07;;;;;;;4.67;4.27;;;;;;;;;;5034476;28;20263;-68
2022/06/26 05:57:33;;;;;;;9.03;5.10;;;;;;;;;;5034252;28;20258;-68
2022/06/26 05:59:59;;;;;;;5.40;4.60;;;;;;;;;;5016505;28;20179;-68
2022/06/26 06:02:25;;;;;;;9.30;5.03;;;;;;;;;;5016353;28;20210;-67
2022/06/26 06:04:51;;;;;;;7.10;5.03;;;;;;;;;;5034294;28;20186;-71
2022/06/26 06:07:17;;;;;;;5.23;4.67;;;;;;;;;;5016525;28;20183;-67
2022/06/26 06:09:43;;;;;;;6.77;4.97;;;;;;;;;;5034228;28;20179;-68
2022/06/26 06:12:09;;;;;;;6.73;5.23;;;;;;;;;;5034559;28;20218;-68
2022/06/26 06:14:35;;;;;;;6.77;4.77;;;;;;;;;;5034123;28;20175;-68
2022/06/26 06:17:35;;;;;;;8.53;5.30;;;;;;;;;;5016337;28;20179;-68
2022/06/26 06:19:47;;;;;;;9.17;5.30;;;;;;;;;;5034345;28;20195;-69
2022/06/26 06:22:13;;;;;;;5.53;4.97;;;;;;;;;;5034268;28;20183;-69
2022/06/26 06:24:39;;;;;;;16.03;5.90;;;;;;;;;;5016523;28;20179;-68
2022/06/26 06:27:05;;;;;;;7.43;5.43;;;;;;;;;;5033977;28;20183;-69
2022/06/26 06:29:31;;;;;;;6.97;5.07;;;;;;;;;;5033796;28;20257;-68
2022/06/26 06:31:57;;;;;;;7.57;4.93;;;;;;;;;;5033995;28;20211;-68
2022/06/26 06:34:23;;;;;;;7.70;5.60;;;;;;;;;;5016253;28;20279;-69
2022/06/26 06:36:49;;;;;;;10.27;5.53;;;;;;;;;;5033649;28;20229;-68
2022/06/26 06:39:15;;;;;;;7.50;5.20;;;;;;;;;;5016058;28;20183;-68
2022/06/26 06:41:41;;;;;;;13.40;5.77;;;;;;;;;;5034012;28;20179;-69
2022/06/26 06:44:07;;;;;;;7.17;5.53;;;;;;;;;;5033398;28;20289;-68
2022/06/26 06:46:33;;;;;;;6.70;5.17;;;;;;;;;;5033721;28;20182;-69
2022/06/26 06:48:59;;;;;;;7.60;5.77;;;;;;;;;;5033630;28;20237;-68
2022/06/26 06:51:25;;;;;;;9.63;5.70;;;;;;;;;;5033673;28;20203;-68
2022/06/26 06:53:51;;;;;;;6.00;5.40;;;;;;;;;;5033532;28;20195;-67
2022/06/26 06:56:17;;;;;;;6.00;5.40;;;;;;;;;;5033398;28;20182;-68
2022/06/26 06:58:43;;;;;;;6.93;4.83;;;;;;;;;;5015872;28;20190;-68
2022/06/26 07:01:09;;;;;;;5.97;4.70;;;;;;;;;;5033404;28;20179;-69
2022/06/26 07:03:35;;;;;;;5.23;4.73;;;;;;;;;;5033424;28;20200;-68
2022/06/26 07:06:01;;;;;;;7.23;4.57;;;;;;;;;;5015753;28;20183;-69
2022/06/26 07:08:27;;;;;;;11.33;4.27;;;;;;;;;;5033540;28;20596;-68
2022/06/26 07:10:53;;;;;;;5.50;4.57;;;;;;;;;;5033240;28;20591;-68
2022/06/26 07:13:18;;;;;;;9.00;4.60;;;;;;;;;;5015504;28;20199;-68
2022/06/26 07:15:44;;;;;;;8.40;4.77;;;;;;;;;;5015504;28;20183;-67
2022/06/26 07:18:10;;;;;;;4.37;3.97;;;;;;;;;;5015383;28;20269;-68
2022/06/26 07:20:37;;;;;;;4.30;3.90;;;;;;;;;;5033544;28;20183;-68
2022/06/26 07:23:03;;;;;;;7.33;4.53;;;;;;;;;;5033264;28;20210;-69
2022/06/26 07:25:29;;;;;;;4.33;3.93;;;;;;;;;;5033159;28;20233;-68
2022/06/26 07:27:55;;;;;;;5.13;3.60;;;;;;;;;;5036551;28;20175;-68
2022/06/26 07:30:21;;;;;;;7.70;3.73;;;;;;;;;;5037261;28;20179;-68
2022/06/26 07:32:47;;;;;;;3.20;3.00;;;;;;;;;;5019108;28;20767;-66
2022/06/26 07:35:13;;;;;;;5.80;3.00;;;;;;;;;;5037320;28;20329;-69
2022/06/26 07:37:40;;;;;;;3.63;3.33;;;;;;;;;;5037156;28;20179;-69
2022/06/26 07:40:07;;;;;;;4.33;3.50;;;;;;;;;;5036989;28;20179;-68
2022/06/26 07:42:33;;;;;;;3.90;2.93;;;;;;;;;;5036878;28;20306;-68
2022/06/26 07:44:58;;;;;;;3.83;3.40;;;;;;;;;;5037233;28;20183;-68
2022/06/26 07:47:25;;;;;;;4.43;3.17;;;;;;;;;;5019462;28;20190;-68
2022/06/26 07:49:51;;;;;;;3.23;2.93;;;;;;;;;;5019120;28;20193;-67
2022/06/26 07:52:17;;;;;;;4.63;2.63;;;;;;;;;;5036752;28;20210;-68
2022/06/26 07:54:43;;;;;;;3.50;2.30;;;;;;;;;;5036910;28;20314;-68
2022/06/26 07:57:09;;;;;;;4.33;2.70;;;;;;;;;;5036702;28;20258;-68
2022/06/26 07:59:35;;;;;;;2.60;2.40;;;;;;;;;;5018994;28;20175;-68
2022/06/26 08:02:01;;;;;;;3.17;2.70;;;;;;;;;;5018803;28;20697;-69
2022/06/26 08:04:27;;;;;;;2.60;2.40;;;;;;;;;;5037210;28;20187;-68
2022/06/26 08:06:53;;;;;;;5.07;2.83;;;;;;;;;;5036451;28;20668;-68
2022/06/26 08:09:19;;;;;;;3.67;2.53;;;;;;;;;;5018500;28;20183;-67
2022/06/26 08:11:45;;;;;;;4.63;2.50;;;;;;;;;;5036374;28;20238;-69
2022/06/26 08:14:10;;;;;;;3.67;2.67;;;;;;;;;;5018324;28;20203;-68
2022/06/26 08:16:36;;;;;;;3.77;2.70;;;;;;;;;;5018539;28;20665;-69
2022/06/26 08:19:02;;;;;;;4.27;3.20;;;;;;;;;;5036017;28;20677;-68
2022/06/26 08:24:13;;;;;;;2.80;2.57;;;;;;;;;;5036192;28;20237;-67
2022/06/26 08:26:39;;;;;;;3.33;2.20;;;;;;;;;;5036352;28;20183;-69
2022/06/26 08:29:05;;;;;;;2.23;2.07;;;;;;;;;;5036798;28;20179;-67
2022/06/26 08:31:31;;;;;;;4.23;2.40;;;;;;;;;;5018289;28;20210;-67
2022/06/26 08:33:57;;;;;;;3.00;2.30;;;;;;;;;;5036157;28;20203;-67
2022/06/26 08:36:23;;;;;;;2.93;2.23;;;;;;;;;;5018702;28;20218;-67
2022/06/26 08:38:49;;;;;;;2.63;2.23;;;;;;;;;;5035527;28;20179;-67
2022/06/26 08:41:15;;;;;;;4.03;1.80;;;;;;;;;;5035747;28;20175;-68
2022/06/26 08:43:41;;;;;;;3.73;2.30;;;;;;;;;;5035568;28;20205;-68
2022/06/26 08:46:07;;;;;;;2.13;1.93;;;;;;;;;;5018777;28;20286;-68
2022/06/26 08:48:43;;;;;;;3.00;2.30;;;;;;;;;;5017881;28;20186;-68
2022/06/26 08:51:10;;;;;;;5.57;2.40;;;;;;;;;;5017882;28;20211;-68
2022/06/26 08:53:36;;;;;;;3.17;1.83;;;;;;;;;;5035478;28;20663;-66
2022/06/26 08:56:02;;;;;;;2.87;2.13;;;;;;;;;;5017792;28;20266;-66
2022/06/26 08:58:28;;;;;;;2.97;2.20;;;;;;;;;;5035642;28;20190;-66
2022/06/26 09:00:54;;;;;;;2.90;2.10;;;;;;;;;;5035316;28;20184;-66
2022/06/26 09:03:20;;;;;;;2.20;2.00;;;;;;;;;;5035365;28;20222;-66
2022/06/26 09:05:46;;;;;;;2.87;1.93;;;;;;;;;;5017275;28;20202;-66
2022/06/26 09:08:19;;;;;;;2.37;1.90;;;;;;;;;;5035338;28;20183;-66
2022/06/26 09:10:49;;;;;;;2.17;1.87;;;;;;;;;;5017268;28;20288;-66
2022/06/26 09:13:15;;;;;;;2.60;2.00;;;;;;;;;;5035317;28;20199;-66
2022/06/26 09:15:42;;;;;;;2.33;1.77;;;;;;;;;;5035151;28;20194;-66
2022/06/26 09:18:10;;;;;;;2.70;2.10;;;;;;;;;;5017225;28;20182;-66
2022/06/26 09:20:37;;;;;;;5.27;2.23;;;;;;;;;;5034857;28;20182;-66
2022/06/26 09:23:04;;;;;;;2.63;1.90;;;;;;;;;;5034635;28;20222;-67
2022/06/26 09:25:34;;;;;;;2.07;1.60;;;;;;;;;;5016852;28;20262;-66
2022/06/26 09:28:07;;;;;;;2.03;1.80;;;;;;;;;;5016955;28;20194;-67
2022/06/26 09:30:33;;;;;;;2.17;1.70;;;;;;;;;;5016908;28;20183;-67
2022/06/26 09:33:02;;;;;;;2.20;1.87;;;;;;;;;;5034669;28;20714;-66
2022/06/26 09:35:27;;;;;;;2.70;1.77;;;;;;;;;;5017259;28;20653;-66
2022/06/26 09:37:53;;;;;;;3.00;1.83;;;;;;;;;;5034586;28;20185;-66
2022/06/26 09:40:19;;;;;;;2.20;1.70;;;;;;;;;;5035063;28;20254;-66
2022/06/26 09:42:46;;;;;;;4.50;1.83;;;;;;;;;;5016824;28;20253;-66
2022/06/26 09:45:12;;;;;;;4.20;1.87;;;;;;;;;;5016527;28;20253;-66
2022/06/26 09:47:39;;;;;;;2.00;1.80;;;;;;;;;;5034650;28;20646;-66
2022/06/26 09:50:07;;;;;;;2.00;1.63;;;;;;;;;;5015748;28;20183;-66
2022/06/26 09:52:33;;;;;;;2.60;1.63;;;;;;;;;;5034644;28;20206;-66
2022/06/26 09:55:00;;;;;;;3.53;1.83;;;;;;;;;;5034238;28;20635;-66
2022/06/26 09:57:26;;;;;;;1.80;1.70;;;;;;;;;;5034213;28;20213;-67
2022/06/26 09:59:53;;;;;;;2.63;2.13;;;;;;;;;;5016512;28;20183;-68
2022/06/26 10:07:53;;;;;;;1.70;1.60;;;;;;;;;;5034569;28;20174;-67
2022/06/26 10:10:23;;;;;;;2.33;1.70;;;;;;;;;;5034128;28;20201;-67
2022/06/26 10:12:54;;;;;;;3.93;1.60;;;;;;;;;;5034147;28;20207;-67
2022/06/26 10:15:21;;;;;;;1.83;1.63;;;;;;;;;;5034637;28;20636;-67
2022/06/26 10:17:59;;;;;;;1.60;1.50;;;;;;;;;;5034189;28;20179;-67
2022/06/26 10:20:25;;;;;;;2.10;1.90;;;;;;;;;;5016231;28;20274;-67
2022/06/26 10:22:51;;;;;;;1.80;1.70;;;;;;;;;;5033824;28;20596;-67
2022/06/26 10:25:22;;;;;;;9.50;7.13;;;;;;;;;;5033918;28;20659;-67
2022/06/26 10:27:48;;;;;;;2.93;1.87;;;;;;;;;;5033713;28;20272;-67
2022/06/26 10:30:15;;;;;;;3.97;3.50;;;;;;;;;;5016080;28;20206;-67
2022/06/26 10:32:42;;;;;;;3.53;1.70;;;;;;;;;;5033949;28;20260;-67
2022/06/26 10:35:08;;;;;;;7.83;4.00;;;;;;;;;;5016021;28;20189;-67
2022/06/26 10:37:43;;;;;;;3.13;2.83;;;;;;;;;;5034082;28;20262;-68
2022/06/26 10:42:52;;;;;;;5.20;4.27;;;;;;;;;;5016013;28;20186;-67
2022/06/26 10:43:04;;;;;;;2.50;1.97;;;;;;;;;;5033262;28;20214;-66
2022/06/26 10:45:31;;;;;;;3.30;1.90;;;;;;;;;;5015727;28;20171;-67
2022/06/26 10:48:02;;;;;;;2.07;1.87;;;;;;;;;;5033452;28;20179;-67
2022/06/26 10:50:28;;;;;;;2.63;2.13;;;;;;;;;;5033517;28;20190;-67
2022/06/26 10:52:54;;;;;;;2.00;1.70;;;;;;;;;;5033362;28;20638;-67
2022/06/26 10:55:20;;;;;;;2.47;1.80;;;;;;;;;;5015576;28;20269;-67
2022/06/26 10:57:49;;;;;;;2.50;1.70;;;;;;;;;;5015484;28;20274;-67
2022/06/26 11:00:16;;;;;;;2.60;1.70;;;;;;;;;;5033723;28;20168;-67
2022/06/26 11:02:44;;;;;;;2.03;1.83;;;;;;;;;;5032816;28;20317;-66
2022/06/26 11:05:10;;;;;;;2.80;1.83;;;;;;;;;;5016421;28;20581;-67
2022/06/26 11:07:44;;;;;;;2.23;2.03;;;;;;;;;;5016410;28;20602;-67
2022/06/26 11:10:21;;;;;;;4.93;2.10;;;;;;;;;;5015486;28;20187;-67
2022/06/26 11:12:48;;;;;;;2.47;1.77;;;;;;;;;;5015440;28;20270;-68
2022/06/26 11:15:43;;;;;;;1.90;1.80;;;;;;;;;;5032930;28;20179;-67
2022/06/26 11:18:09;;;;;;;2.57;2.03;;;;;;;;;;4999201;28;20187;-67
2022/06/26 11:20:56;;;;;;;3.00;1.70;;;;;;;;;;5033025;28;20180;-67
2022/06/26 11:23:26;;;;;;;3.07;1.90;;;;;;;;;;5015175;28;20222;-67
2022/06/26 11:25:59;;;;;;;2.27;1.70;;;;;;;;;;5032850;28;20175;-67
2022/06/26 11:28:29;;;;;;;1.70;1.60;;;;;;;;;;5033303;28;20545;-67
2022/06/26 11:30:56;;;;;;;3.83;2.17;;;;;;;;;;5032878;28;20746;-66
2022/06/26 11:33:23;;;;;;;3.70;2.03;;;;;;;;;;5032904;28;20576;-67
2022/06/26 11:35:49;;;;;;;3.50;1.90;;;;;;;;;;5015139;28;20179;-66
2022/06/26 11:38:18;;;;;;;2.07;1.90;;;;;;;;;;5015245;28;20228;-67
2022/06/26 11:40:44;;;;;;;3.10;2.00;;;;;;;;;;5015252;28;20198;-67
2022/06/26 11:43:11;;;;;;;4.70;1.90;;;;;;;;;;5033279;28;20199;-66
2022/06/26 11:45:39;;;;;;;2.47;2.10;;;;;;;;;;5015171;28;20183;-67
2022/06/26 11:48:07;;;;;;;3.70;2.10;;;;;;;;;;5033106;28;20631;-67
2022/06/26 11:50:34;;;;;;;4.03;1.70;;;;;;;;;;5033025;28;20773;-66
2022/06/26 11:53:00;;;;;;;4.07;2.10;;;;;;;;;;5032922;28;20228;-67
2022/06/26 11:55:26;;;;;;;2.23;1.77;;;;;;;;;;5033046;28;20247;-66
2022/06/26 11:57:55;;;;;;;3.93;2.27;;;;;;;;;;5033276;28;20517;-66
2022/06/26 12:00:22;;;;;;;4.20;2.10;;;;;;;;;;5015265;28;20182;-67
2022/06/26 12:02:48;;;;;;;4.53;2.20;;;;;;;;;;5015138;28;20207;-67
2022/06/26 12:05:20;;;;;;;2.10;1.90;;;;;;;;;;5033150;28;20183;-67
2022/06/26 12:07:47;;;;;;;4.13;2.10;;;;;;;;;;5014898;28;20182;-66
2022/06/26 12:10:24;;;;;;;2.97;2.20;;;;;;;;;;5032580;28;20262;-67
2022/06/26 12:12:51;;;;;;;3.10;2.00;;;;;;;;;;5033047;28;20693;-66
2022/06/26 12:15:17;;;;;;;3.67;2.40;;;;;;;;;;5036322;28;20639;-66
2022/06/26 12:17:43;;;;;;;3.23;2.20;;;;;;;;;;5036278;28;20176;-66
2022/06/26 12:20:11;;;;;;;2.47;2.10;;;;;;;;;;5018402;28;20301;-66
2022/06/26 12:22:37;;;;;;;2.63;1.90;;;;;;;;;;5017997;28;20219;-66
2022/06/26 12:25:04;;;;;;;3.17;2.20;;;;;;;;;;5036086;28;20522;-65
2022/06/26 12:27:42;;;;;;;2.30;2.00;;;;;;;;;;5036141;28;20253;-67
2022/06/26 12:30:15;;;;;;;2.30;2.03;;;;;;;;;;5018074;28;20186;-66
2022/06/26 12:32:41;;;;;;;2.87;2.20;;;;;;;;;;5036017;28;20222;-66
2022/06/26 12:35:08;;;;;;;4.13;2.00;;;;;;;;;;5018111;28;20183;-66
2022/06/26 12:37:33;;;;;;;2.00;1.90;;;;;;;;;;5017935;28;20189;-66
2022/06/26 12:39:59;;;;;;;3.67;2.80;;;;;;;;;;5035847;28;20171;-66
2022/06/26 12:42:25;;;;;;;3.17;2.73;;;;;;;;;;5035763;28;20203;-66
2022/06/26 12:44:51;;;;;;;3.83;2.10;;;;;;;;;;5035776;28;20183;-66
2022/06/26 12:47:17;;;;;;;3.60;2.20;;;;;;;;;;5017833;28;20290;-68
2022/06/26 12:49:43;;;;;;;3.20;2.20;;;;;;;;;;5017669;28;20578;-67
2022/06/26 12:52:09;;;;;;;2.10;2.00;;;;;;;;;;5035715;28;20632;-67
2022/06/26 12:54:35;;;;;;;2.37;2.00;;;;;;;;;;5035310;28;20194;-67
2022/06/26 12:57:01;;;;;;;5.13;2.13;;;;;;;;;;5035251;28;20175;-68
2022/06/26 12:59:27;;;;;;;3.87;2.47;;;;;;;;;;5017668;28;20190;-67
2022/06/26 13:01:53;;;;;;;3.37;2.67;;;;;;;;;;5035202;28;20258;-67
2022/06/26 13:04:19;;;;;;;3.97;2.17;;;;;;;;;;5017280;28;20222;-67
2022/06/26 13:06:45;;;;;;;2.80;2.30;;;;;;;;;;5017325;28;20524;-66
2022/06/26 13:09:11;;;;;;;1.80;1.70;;;;;;;;;;5034936;28;20272;-66
2022/06/26 13:11:37;;;;;;;3.07;2.37;;;;;;;;;;5035085;28;20209;-67
2022/06/26 13:14:03;;;;;;;2.97;1.70;;;;;;;;;;5017030;28;20234;-67
2022/06/26 13:16:29;;;;;;;2.53;1.70;;;;;;;;;;5034815;28;20642;-66
2022/06/26 13:18:55;;;;;;;3.17;2.10;;;;;;;;;;5034754;28;20175;-67
2022/06/26 13:21:21;;;;;;;6.10;2.27;;;;;;;;;;5034769;28;20269;-66
2022/06/26 13:23:48;;;;;;;2.20;1.83;;;;;;;;;;5034671;28;20226;-67
2022/06/26 13:26:14;;;;;;;2.37;1.73;;;;;;;;;;5034952;28;20520;-66
2022/06/26 13:28:40;;;;;;;4.00;1.97;;;;;;;;;;5016758;28;20194;-67
2022/06/26 13:31:06;;;;;;;4.43;1.90;;;;;;;;;;5016738;28;20207;-66
2022/06/26 13:33:32;;;;;;;4.33;1.80;;;;;;;;;;5016796;28;20647;-67
2022/06/26 13:35:58;;;;;;;3.53;2.00;;;;;;;;;;5034591;28;20176;-67
2022/06/26 13:38:24;;;;;;;3.00;1.93;;;;;;;;;;5016581;28;20214;-67
2022/06/26 13:40:50;;;;;;;3.57;2.33;;;;;;;;;;5034474;28;20171;-67
2022/06/26 13:43:17;;;;;;;3.83;2.30;;;;;;;;;;5016612;28;20225;-67
2022/06/26 13:45:43;;;;;;;3.60;2.60;;;;;;;;;;5034461;28;20643;-67
2022/06/26 13:48:09;;;;;;;4.43;2.60;;;;;;;;;;5016597;28;20321;-67
2022/06/26 13:50:35;;;;;;;3.77;2.30;;;;;;;;;;5034387;28;20625;-64
2022/06/26 13:53:01;;;;;;;5.00;2.50;;;;;;;;;;5016308;28;20309;-65
2022/06/26 13:55:27;;;;;;;2.50;2.30;;;;;;;;;;5016467;28;20275;-65
2022/06/26 13:57:53;;;;;;;4.87;3.07;;;;;;;;;;5016107;28;20214;-66
2022/06/26 14:00:19;;;;;;;4.80;3.27;;;;;;;;;;5033770;28;20229;-65
2022/06/26 14:02:45;;;;;;;3.70;2.77;;;;;;;;;;5033935;28;20285;-71
2022/06/26 14:05:11;;;;;;;2.77;2.30;;;;;;;;;;5034120;28;20211;-65
2022/06/26 14:07:37;;;;;;;3.43;2.70;;;;;;;;;;5056037;23;20221;-70
2022/06/26 14:10:03;;;;;;;3.27;2.57;;;;;;;;;;5074390;28;20172;-70
2022/06/26 14:12:29;;;;;;;4.43;2.47;;;;;;;;;;5056104;28;20287;-70
2022/06/26 14:14:55;;;;;;;3.70;2.50;;;;;;;;;;5055930;28;20290;-70
2022/06/26 14:17:21;;;;;;;4.90;2.47;;;;;;;;;;5056515;28;20174;-69
2022/06/26 14:19:47;;;;;;;3.07;2.40;;;;;;;;;;5073814;28;20546;-70
2022/06/26 14:27:42;;;;;;;3.07;2.43;;;;;;;;;;5074385;28;20224;-70
2022/06/26 14:30:09;;;;;;;3.57;2.57;;;;;;;;;;5073952;28;20630;-69
2022/06/26 14:32:35;;;;;;;5.00;2.70;;;;;;;;;;5073743;28;20273;-70
2022/06/26 14:35:01;;;;;;;4.77;2.30;;;;;;;;;;5074146;28;20178;-70
2022/06/26 14:37:27;;;;;;;11.60;7.07;;;;;;;;;;5055316;28;20689;-69
2022/06/26 14:39:53;;;;;;;3.63;2.93;;;;;;;;;;5074075;28;20185;-69
2022/06/26 14:42:19;;;;;;;2.73;2.20;;;;;;;;;;5074415;28;20189;-69
2022/06/26 14:44:45;;;;;;;3.57;2.73;;;;;;;;;;5056001;28;20190;-69
2022/06/26 14:47:11;;;;;;;7.03;2.70;;;;;;;;;;5055860;28;20231;-69
2022/06/26 14:49:39;;;;;;;4.63;3.03;;;;;;;;;;5073798;28;20555;-69
2022/06/26 14:52:05;;;;;;;2.97;2.40;;;;;;;;;;5074854;28;20247;-69